sensor_id;sensor_type;location;lat;lon;timestamp;P1;durP1;ratioP1;P2;durP2;ratioP2
57746;SDS011;43580;44.014;20.466;2022-11-15T00:00:29;112.60;;;66.18;;
57746;SDS011;43580;44.014;20.466;2022-11-15T00:02:55;129.05;;;75.13;;
57746;SDS011;43580;44.014;20.466;2022-11-15T00:05:21;114.00;;;66.57;;
57746;SDS011;43580;44.014;20.466;2022-11-15T00:07:47;117.32;;;71.10;;
57746;SDS011;43580;44.014;20.466;2022-11-15T00:10:13;112.20;;;64.53;;
57746;SDS011;43580;44.014;20.466;2022-11-15T00:12:39;106.35;;;59.83;;
57746;SDS011;43580;44.014;20.466;2022-11-15T00:15:05;113.43;;;65.22;;
57746;SDS011;43580;44.014;20.466;2022-11-15T00:17:32;98.70;;;55.13;;
57746;SDS011;43580;44.014;20.466;2022-11-15T00:19:58;108.45;;;57.13;;
57746;SDS011;43580;44.014;20.466;2022-11-15T00:22:24;103.28;;;56.45;;
57746;SDS011;43580;44.014;20.466;2022-11-15T00:24:52;98.75;;;57.00;;
57746;SDS011;43580;44.014;20.466;2022-11-15T00:27:18;111.13;;;68.32;;
57746;SDS011;43580;44.014;20.466;2022-11-15T00:29:44;119.28;;;72.00;;
57746;SDS011;43580;44.014;20.466;2022-11-15T00:32:10;127.70;;;73.20;;
57746;SDS011;43580;44.014;20.466;2022-11-15T00:34:36;119.50;;;69.18;;
57746;SDS011;43580;44.014;20.466;2022-11-15T00:37:02;103.97;;;57.70;;
57746;SDS011;43580;44.014;20.466;2022-11-15T00:39:29;91.25;;;51.58;;
57746;SDS011;43580;44.014;20.466;2022-11-15T00:41:55;93.82;;;54.55;;
57746;SDS011;43580;44.014;20.466;2022-11-15T00:44:21;95.32;;;52.33;;
57746;SDS011;43580;44.014;20.466;2022-11-15T00:46:47;91.63;;;50.67;;
57746;SDS011;43580;44.014;20.466;2022-11-15T00:49:13;97.57;;;54.42;;
57746;SDS011;43580;44.014;20.466;2022-11-15T00:51:39;101.70;;;56.17;;
57746;SDS011;43580;44.014;20.466;2022-11-15T00:54:05;93.60;;;53.92;;
57746;SDS011;43580;44.014;20.466;2022-11-15T00:56:31;97.07;;;54.80;;
57746;SDS011;43580;44.014;20.466;2022-11-15T00:58:58;97.05;;;54.80;;
57746;SDS011;43580;44.014;20.466;2022-11-15T01:01:24;85.53;;;51.63;;
57746;SDS011;43580;44.014;20.466;2022-11-15T01:03:50;84.40;;;46.72;;
57746;SDS011;43580;44.014;20.466;2022-11-15T01:06:16;82.20;;;47.63;;
57746;SDS011;43580;44.014;20.466;2022-11-15T01:08:42;85.50;;;46.22;;
57746;SDS011;43580;44.014;20.466;2022-11-15T01:11:09;79.22;;;45.92;;
57746;SDS011;43580;44.014;20.466;2022-11-15T01:13:35;77.72;;;47.17;;
57746;SDS011;43580;44.014;20.466;2022-11-15T01:16:12;82.97;;;49.70;;
57746;SDS011;43580;44.014;20.466;2022-11-15T01:18:39;87.78;;;50.58;;
57746;SDS011;43580;44.014;20.466;2022-11-15T01:21:06;85.55;;;50.67;;
57746;SDS011;43580;44.014;20.466;2022-11-15T01:23:32;78.75;;;47.20;;
57746;SDS011;43580;44.014;20.466;2022-11-15T01:25:59;81.68;;;47.80;;
57746;SDS011;43580;44.014;20.466;2022-11-15T01:28:34;97.85;;;54.22;;
57746;SDS011;43580;44.014;20.466;2022-11-15T01:31:04;88.40;;;51.38;;
57746;SDS011;43580;44.014;20.466;2022-11-15T01:33:30;81.15;;;48.50;;
57746;SDS011;43580;44.014;20.466;2022-11-15T01:35:56;78.00;;;45.00;;
57746;SDS011;43580;44.014;20.466;2022-11-15T01:38:22;96.82;;;55.08;;
57746;SDS011;43580;44.014;20.466;2022-11-15T01:40:48;81.05;;;47.20;;
57746;SDS011;43580;44.014;20.466;2022-11-15T01:43:25;122.03;;;64.95;;
57746;SDS011;43580;44.014;20.466;2022-11-15T01:46:20;136.60;;;72.38;;
57746;SDS011;43580;44.014;20.466;2022-11-15T01:48:41;80.03;;;46.80;;
57746;SDS011;43580;44.014;20.466;2022-11-15T01:51:08;90.68;;;52.13;;
57746;SDS011;43580;44.014;20.466;2022-11-15T01:53:35;87.25;;;47.75;;
57746;SDS011;43580;44.014;20.466;2022-11-15T01:56:03;95.82;;;54.17;;
57746;SDS011;43580;44.014;20.466;2022-11-15T01:58:31;89.18;;;49.28;;
57746;SDS011;43580;44.014;20.466;2022-11-15T02:00:58;85.68;;;49.13;;
57746;SDS011;43580;44.014;20.466;2022-11-15T02:03:26;86.18;;;50.08;;
57746;SDS011;43580;44.014;20.466;2022-11-15T02:05:59;104.75;;;58.35;;
57746;SDS011;43580;44.014;20.466;2022-11-15T02:08:26;121.50;;;63.75;;
57746;SDS011;43580;44.014;20.466;2022-11-15T02:10:52;116.13;;;62.67;;
57746;SDS011;43580;44.014;20.466;2022-11-15T02:13:18;112.45;;;59.78;;
57746;SDS011;43580;44.014;20.466;2022-11-15T02:18:52;84.85;;;48.17;;
57746;SDS011;43580;44.014;20.466;2022-11-15T02:21:29;81.97;;;49.05;;
57746;SDS011;43580;44.014;20.466;2022-11-15T02:24:42;85.57;;;48.78;;
57746;SDS011;43580;44.014;20.466;2022-11-15T02:32:14;83.35;;;48.47;;
57746;SDS011;43580;44.014;20.466;2022-11-15T02:35:03;83.82;;;48.40;;
57746;SDS011;43580;44.014;20.466;2022-11-15T02:37:37;75.80;;;44.92;;
57746;SDS011;43580;44.014;20.466;2022-11-15T02:42:32;78.72;;;46.58;;
57746;SDS011;43580;44.014;20.466;2022-11-15T02:45:20;71.65;;;43.33;;
57746;SDS011;43580;44.014;20.466;2022-11-15T02:47:47;77.55;;;43.75;;
57746;SDS011;43580;44.014;20.466;2022-11-15T02:50:16;144.20;;;72.32;;
57746;SDS011;43580;44.014;20.466;2022-11-15T02:52:46;79.35;;;44.17;;
57746;SDS011;43580;44.014;20.466;2022-11-15T02:55:25;74.75;;;41.28;;
57746;SDS011;43580;44.014;20.466;2022-11-15T02:57:52;63.83;;;38.13;;
57746;SDS011;43580;44.014;20.466;2022-11-15T03:00:22;56.20;;;34.85;;
57746;SDS011;43580;44.014;20.466;2022-11-15T03:05:56;55.45;;;33.05;;
57746;SDS011;43580;44.014;20.466;2022-11-15T03:08:23;58.25;;;36.10;;
57746;SDS011;43580;44.014;20.466;2022-11-15T03:11:09;60.58;;;36.28;;
57746;SDS011;43580;44.014;20.466;2022-11-15T03:18:32;72.00;;;38.80;;
57746;SDS011;43580;44.014;20.466;2022-11-15T03:20:59;43.17;;;27.70;;
57746;SDS011;43580;44.014;20.466;2022-11-15T03:23:26;44.33;;;26.58;;
57746;SDS011;43580;44.014;20.466;2022-11-15T03:25:54;49.38;;;29.48;;
57746;SDS011;43580;44.014;20.466;2022-11-15T03:29:22;52.58;;;30.05;;
57746;SDS011;43580;44.014;20.466;2022-11-15T03:31:17;58.75;;;33.33;;
57746;SDS011;43580;44.014;20.466;2022-11-15T03:34:04;90.38;;;48.75;;
57746;SDS011;43580;44.014;20.466;2022-11-15T03:36:31;104.30;;;54.97;;
57746;SDS011;43580;44.014;20.466;2022-11-15T03:39:00;110.57;;;56.97;;
57746;SDS011;43580;44.014;20.466;2022-11-15T03:41:29;120.50;;;59.15;;
57746;SDS011;43580;44.014;20.466;2022-11-15T03:44:01;74.68;;;43.55;;
57746;SDS011;43580;44.014;20.466;2022-11-15T03:49:12;47.35;;;28.70;;
57746;SDS011;43580;44.014;20.466;2022-11-15T03:51:38;49.92;;;29.60;;
57746;SDS011;43580;44.014;20.466;2022-11-15T03:54:05;53.15;;;27.65;;
57746;SDS011;43580;44.014;20.466;2022-11-15T03:56:31;44.63;;;27.35;;
57746;SDS011;43580;44.014;20.466;2022-11-15T03:58:57;51.55;;;30.63;;
57746;SDS011;43580;44.014;20.466;2022-11-15T04:01:23;69.30;;;38.72;;
57746;SDS011;43580;44.014;20.466;2022-11-15T04:03:49;82.35;;;42.67;;
57746;SDS011;43580;44.014;20.466;2022-11-15T04:06:15;77.50;;;42.78;;
57746;SDS011;43580;44.014;20.466;2022-11-15T04:08:41;41.72;;;26.52;;
57746;SDS011;43580;44.014;20.466;2022-11-15T04:11:07;36.58;;;22.98;;
57746;SDS011;43580;44.014;20.466;2022-11-15T04:13:33;37.55;;;22.10;;
57746;SDS011;43580;44.014;20.466;2022-11-15T04:15:59;38.35;;;22.98;;
57746;SDS011;43580;44.014;20.466;2022-11-15T04:18:26;36.25;;;22.00;;
57746;SDS011;43580;44.014;20.466;2022-11-15T04:20:54;33.08;;;20.00;;
57746;SDS011;43580;44.014;20.466;2022-11-15T04:23:49;31.63;;;19.65;;
57746;SDS011;43580;44.014;20.466;2022-11-15T04:26:34;34.00;;;19.25;;
57746;SDS011;43580;44.014;20.466;2022-11-15T04:29:00;30.33;;;19.65;;
57746;SDS011;43580;44.014;20.466;2022-11-15T04:31:47;34.38;;;20.85;;
57746;SDS011;43580;44.014;20.466;2022-11-15T04:34:13;36.05;;;21.48;;
57746;SDS011;43580;44.014;20.466;2022-11-15T04:36:39;32.45;;;20.23;;
57746;SDS011;43580;44.014;20.466;2022-11-15T04:39:24;29.07;;;18.60;;
57746;SDS011;43580;44.014;20.466;2022-11-15T04:41:50;24.48;;;15.65;;
57746;SDS011;43580;44.014;20.466;2022-11-15T04:44:16;23.92;;;15.93;;
57746;SDS011;43580;44.014;20.466;2022-11-15T04:46:42;26.67;;;17.02;;
57746;SDS011;43580;44.014;20.466;2022-11-15T04:49:08;27.25;;;17.10;;
57746;SDS011;43580;44.014;20.466;2022-11-15T04:51:37;30.23;;;17.67;;
57746;SDS011;43580;44.014;20.466;2022-11-15T04:54:08;30.80;;;18.73;;
57746;SDS011;43580;44.014;20.466;2022-11-15T04:56:36;37.63;;;19.60;;
57746;SDS011;43580;44.014;20.466;2022-11-15T04:59:02;33.55;;;19.13;;
57746;SDS011;43580;44.014;20.466;2022-11-15T05:01:28;38.50;;;21.60;;
57746;SDS011;43580;44.014;20.466;2022-11-15T05:03:54;38.15;;;23.55;;
57746;SDS011;43580;44.014;20.466;2022-11-15T05:06:42;35.47;;;21.02;;
57746;SDS011;43580;44.014;20.466;2022-11-15T05:09:08;31.02;;;19.90;;
57746;SDS011;43580;44.014;20.466;2022-11-15T05:11:34;46.17;;;25.92;;
57746;SDS011;43580;44.014;20.466;2022-11-15T05:14:00;34.45;;;20.23;;
57746;SDS011;43580;44.014;20.466;2022-11-15T05:16:26;34.95;;;20.08;;
57746;SDS011;43580;44.014;20.466;2022-11-15T05:18:53;31.55;;;18.92;;
57746;SDS011;43580;44.014;20.466;2022-11-15T05:21:19;32.42;;;20.35;;
57746;SDS011;43580;44.014;20.466;2022-11-15T05:23:45;32.75;;;21.23;;
57746;SDS011;43580;44.014;20.466;2022-11-15T05:26:11;31.83;;;19.38;;
57746;SDS011;43580;44.014;20.466;2022-11-15T05:28:38;36.08;;;21.80;;
57746;SDS011;43580;44.014;20.466;2022-11-15T05:31:05;33.03;;;20.08;;
57746;SDS011;43580;44.014;20.466;2022-11-15T05:33:32;40.45;;;24.48;;
57746;SDS011;43580;44.014;20.466;2022-11-15T05:36:09;40.78;;;24.27;;
57746;SDS011;43580;44.014;20.466;2022-11-15T05:38:35;36.92;;;23.63;;
57746;SDS011;43580;44.014;20.466;2022-11-15T05:41:01;35.85;;;19.95;;
57746;SDS011;43580;44.014;20.466;2022-11-15T05:43:29;41.88;;;25.27;;
57746;SDS011;43580;44.014;20.466;2022-11-15T05:45:57;68.60;;;39.47;;
57746;SDS011;43580;44.014;20.466;2022-11-15T05:48:24;57.35;;;36.35;;
57746;SDS011;43580;44.014;20.466;2022-11-15T05:50:50;55.30;;;34.92;;
57746;SDS011;43580;44.014;20.466;2022-11-15T05:53:17;35.63;;;23.15;;
57746;SDS011;43580;44.014;20.466;2022-11-15T05:55:45;28.75;;;17.70;;
57746;SDS011;43580;44.014;20.466;2022-11-15T05:58:11;27.92;;;17.70;;
57746;SDS011;43580;44.014;20.466;2022-11-15T06:00:40;28.20;;;17.98;;
57746;SDS011;43580;44.014;20.466;2022-11-15T06:03:08;28.67;;;17.17;;
57746;SDS011;43580;44.014;20.466;2022-11-15T06:05:34;29.95;;;18.75;;
57746;SDS011;43580;44.014;20.466;2022-11-15T06:08:00;27.02;;;18.85;;
57746;SDS011;43580;44.014;20.466;2022-11-15T06:10:26;32.20;;;20.13;;
57746;SDS011;43580;44.014;20.466;2022-11-15T06:12:58;32.88;;;21.83;;
57746;SDS011;43580;44.014;20.466;2022-11-15T06:15:25;40.78;;;24.27;;
57746;SDS011;43580;44.014;20.466;2022-11-15T06:17:51;26.42;;;17.50;;
57746;SDS011;43580;44.014;20.466;2022-11-15T06:20:22;36.38;;;22.40;;
57746;SDS011;43580;44.014;20.466;2022-11-15T06:22:48;53.72;;;32.38;;
57746;SDS011;43580;44.014;20.466;2022-11-15T06:25:16;38.85;;;24.75;;
57746;SDS011;43580;44.014;20.466;2022-11-15T06:27:42;27.08;;;17.08;;
57746;SDS011;43580;44.014;20.466;2022-11-15T06:30:09;27.08;;;16.45;;
57746;SDS011;43580;44.014;20.466;2022-11-15T06:32:35;37.50;;;24.25;;
57746;SDS011;43580;44.014;20.466;2022-11-15T06:35:01;35.70;;;20.95;;
57746;SDS011;43580;44.014;20.466;2022-11-15T06:37:27;39.22;;;22.50;;
57746;SDS011;43580;44.014;20.466;2022-11-15T06:39:53;37.78;;;21.15;;
57746;SDS011;43580;44.014;20.466;2022-11-15T06:42:19;26.55;;;14.70;;
57746;SDS011;43580;44.014;20.466;2022-11-15T06:44:45;20.58;;;14.02;;
57746;SDS011;43580;44.014;20.466;2022-11-15T06:47:11;22.98;;;14.45;;
57746;SDS011;43580;44.014;20.466;2022-11-15T06:49:37;25.55;;;15.75;;
57746;SDS011;43580;44.014;20.466;2022-11-15T06:52:06;24.05;;;16.60;;
57746;SDS011;43580;44.014;20.466;2022-11-15T06:54:32;23.35;;;16.65;;
57746;SDS011;43580;44.014;20.466;2022-11-15T06:56:58;25.05;;;15.73;;
57746;SDS011;43580;44.014;20.466;2022-11-15T06:59:24;24.25;;;15.10;;
57746;SDS011;43580;44.014;20.466;2022-11-15T07:01:50;27.17;;;18.45;;
57746;SDS011;43580;44.014;20.466;2022-11-15T07:04:16;31.95;;;19.38;;
57746;SDS011;43580;44.014;20.466;2022-11-15T07:06:46;32.42;;;21.63;;
57746;SDS011;43580;44.014;20.466;2022-11-15T07:09:17;25.83;;;18.90;;
57746;SDS011;43580;44.014;20.466;2022-11-15T07:11:45;25.10;;;16.55;;
57746;SDS011;43580;44.014;20.466;2022-11-15T07:14:11;27.73;;;16.95;;
57746;SDS011;43580;44.014;20.466;2022-11-15T07:16:37;26.63;;;17.40;;
57746;SDS011;43580;44.014;20.466;2022-11-15T07:19:06;25.73;;;16.83;;
57746;SDS011;43580;44.014;20.466;2022-11-15T07:21:36;27.20;;;17.98;;
57746;SDS011;43580;44.014;20.466;2022-11-15T07:24:02;26.83;;;17.73;;
57746;SDS011;43580;44.014;20.466;2022-11-15T07:26:29;26.33;;;17.13;;
57746;SDS011;43580;44.014;20.466;2022-11-15T07:28:55;33.13;;;20.20;;
57746;SDS011;43580;44.014;20.466;2022-11-15T07:31:21;40.08;;;25.02;;
57746;SDS011;43580;44.014;20.466;2022-11-15T07:33:47;33.13;;;20.90;;
57746;SDS011;43580;44.014;20.466;2022-11-15T07:36:13;33.30;;;19.95;;
57746;SDS011;43580;44.014;20.466;2022-11-15T07:38:39;26.23;;;17.20;;
57746;SDS011;43580;44.014;20.466;2022-11-15T07:41:05;28.63;;;18.50;;
57746;SDS011;43580;44.014;20.466;2022-11-15T07:43:32;24.00;;;15.35;;
57746;SDS011;43580;44.014;20.466;2022-11-15T07:45:58;23.25;;;15.90;;
57746;SDS011;43580;44.014;20.466;2022-11-15T07:48:29;25.45;;;16.02;;
57746;SDS011;43580;44.014;20.466;2022-11-15T07:50:55;24.27;;;16.15;;
57746;SDS011;43580;44.014;20.466;2022-11-15T07:53:22;23.80;;;17.00;;
57746;SDS011;43580;44.014;20.466;2022-11-15T07:55:48;22.92;;;13.43;;
57746;SDS011;43580;44.014;20.466;2022-11-15T07:58:14;19.02;;;13.63;;
57746;SDS011;43580;44.014;20.466;2022-11-15T08:00:40;23.67;;;14.80;;
57746;SDS011;43580;44.014;20.466;2022-11-15T08:03:07;24.33;;;13.93;;
57746;SDS011;43580;44.014;20.466;2022-11-15T08:05:34;20.40;;;12.32;;
57746;SDS011;43580;44.014;20.466;2022-11-15T08:08:00;24.00;;;15.75;;
57746;SDS011;43580;44.014;20.466;2022-11-15T08:10:27;21.00;;;11.38;;
57746;SDS011;43580;44.014;20.466;2022-11-15T08:13:00;22.42;;;14.45;;
57746;SDS011;43580;44.014;20.466;2022-11-15T08:15:26;27.15;;;14.85;;
57746;SDS011;43580;44.014;20.466;2022-11-15T08:17:53;23.38;;;14.30;;
57746;SDS011;43580;44.014;20.466;2022-11-15T08:20:22;23.00;;;14.25;;
57746;SDS011;43580;44.014;20.466;2022-11-15T08:22:48;22.85;;;14.50;;
57746;SDS011;43580;44.014;20.466;2022-11-15T08:25:14;21.83;;;14.15;;
57746;SDS011;43580;44.014;20.466;2022-11-15T08:27:45;24.42;;;14.77;;
57746;SDS011;43580;44.014;20.466;2022-11-15T08:30:11;23.90;;;16.05;;
57746;SDS011;43580;44.014;20.466;2022-11-15T08:32:38;21.55;;;14.38;;
57746;SDS011;43580;44.014;20.466;2022-11-15T08:35:05;22.90;;;14.63;;
57746;SDS011;43580;44.014;20.466;2022-11-15T08:37:31;28.98;;;15.18;;
57746;SDS011;43580;44.014;20.466;2022-11-15T08:39:57;39.67;;;20.98;;
57746;SDS011;43580;44.014;20.466;2022-11-15T08:42:23;23.42;;;14.57;;
57746;SDS011;43580;44.014;20.466;2022-11-15T08:44:49;38.63;;;19.70;;
57746;SDS011;43580;44.014;20.466;2022-11-15T08:47:18;26.27;;;15.98;;
57746;SDS011;43580;44.014;20.466;2022-11-15T08:49:44;26.90;;;15.35;;
57746;SDS011;43580;44.014;20.466;2022-11-15T08:52:10;36.75;;;20.75;;
57746;SDS011;43580;44.014;20.466;2022-11-15T08:54:36;34.85;;;21.70;;
57746;SDS011;43580;44.014;20.466;2022-11-15T08:57:02;33.50;;;22.95;;
57746;SDS011;43580;44.014;20.466;2022-11-15T08:59:28;31.73;;;19.55;;
57746;SDS011;43580;44.014;20.466;2022-11-15T09:01:54;30.48;;;18.77;;
57746;SDS011;43580;44.014;20.466;2022-11-15T09:04:20;38.13;;;23.33;;
57746;SDS011;43580;44.014;20.466;2022-11-15T09:06:46;32.25;;;20.42;;
57746;SDS011;43580;44.014;20.466;2022-11-15T09:09:12;29.58;;;18.40;;
57746;SDS011;43580;44.014;20.466;2022-11-15T09:11:38;40.65;;;20.25;;
57746;SDS011;43580;44.014;20.466;2022-11-15T09:14:13;51.10;;;31.38;;
57746;SDS011;43580;44.014;20.466;2022-11-15T09:16:39;31.15;;;19.70;;
57746;SDS011;43580;44.014;20.466;2022-11-15T09:19:05;65.45;;;33.55;;
57746;SDS011;43580;44.014;20.466;2022-11-15T09:21:32;36.30;;;23.60;;
57746;SDS011;43580;44.014;20.466;2022-11-15T09:23:58;32.90;;;19.80;;
57746;SDS011;43580;44.014;20.466;2022-11-15T09:26:24;41.92;;;22.73;;
57746;SDS011;43580;44.014;20.466;2022-11-15T09:28:50;39.28;;;21.00;;
57746;SDS011;43580;44.014;20.466;2022-11-15T09:31:16;40.63;;;24.40;;
57746;SDS011;43580;44.014;20.466;2022-11-15T09:33:45;55.42;;;33.13;;
57746;SDS011;43580;44.014;20.466;2022-11-15T09:36:12;32.83;;;21.10;;
57746;SDS011;43580;44.014;20.466;2022-11-15T09:38:38;31.63;;;20.38;;
57746;SDS011;43580;44.014;20.466;2022-11-15T09:46:07;35.70;;;20.42;;
57746;SDS011;43580;44.014;20.466;2022-11-15T09:48:49;29.25;;;19.27;;
57746;SDS011;43580;44.014;20.466;2022-11-15T09:51:25;25.75;;;17.48;;
57746;SDS011;43580;44.014;20.466;2022-11-15T09:56:22;32.55;;;19.42;;
57746;SDS011;43580;44.014;20.466;2022-11-15T10:04:11;37.22;;;20.58;;
57746;SDS011;43580;44.014;20.466;2022-11-15T10:06:38;35.88;;;19.52;;
57746;SDS011;43580;44.014;20.466;2022-11-15T10:09:10;31.38;;;18.27;;
57746;SDS011;43580;44.014;20.466;2022-11-15T10:11:37;29.73;;;16.25;;
57746;SDS011;43580;44.014;20.466;2022-11-15T10:14:12;27.85;;;17.33;;
57746;SDS011;43580;44.014;20.466;2022-11-15T10:22:29;37.67;;;21.35;;
57746;SDS011;43580;44.014;20.466;2022-11-15T10:25:18;44.28;;;20.60;;
57746;SDS011;43580;44.014;20.466;2022-11-15T10:27:44;44.08;;;22.38;;
57746;SDS011;43580;44.014;20.466;2022-11-15T10:30:14;38.63;;;21.63;;
57746;SDS011;43580;44.014;20.466;2022-11-15T10:32:44;40.53;;;23.40;;
57746;SDS011;43580;44.014;20.466;2022-11-15T10:35:27;34.45;;;22.17;;
57746;SDS011;43580;44.014;20.466;2022-11-15T10:40:22;27.48;;;18.73;;
57746;SDS011;43580;44.014;20.466;2022-11-15T10:43:05;29.63;;;20.17;;
57746;SDS011;43580;44.014;20.466;2022-11-15T10:45:32;32.40;;;18.45;;
57746;SDS011;43580;44.014;20.466;2022-11-15T10:50:41;27.35;;;17.85;;
57746;SDS011;43580;44.014;20.466;2022-11-15T10:55:49;28.73;;;18.75;;
57746;SDS011;43580;44.014;20.466;2022-11-15T10:58:36;27.58;;;17.70;;
57746;SDS011;43580;44.014;20.466;2022-11-15T11:01:09;30.83;;;19.42;;
57746;SDS011;43580;44.014;20.466;2022-11-15T11:03:36;28.70;;;18.85;;
57746;SDS011;43580;44.014;20.466;2022-11-15T11:06:17;25.20;;;18.48;;
57746;SDS011;43580;44.014;20.466;2022-11-15T11:08:54;24.63;;;16.98;;
57746;SDS011;43580;44.014;20.466;2022-11-15T11:11:20;27.23;;;18.60;;
57746;SDS011;43580;44.014;20.466;2022-11-15T11:13:46;24.55;;;16.92;;
57746;SDS011;43580;44.014;20.466;2022-11-15T11:19:18;29.65;;;17.05;;
57746;SDS011;43580;44.014;20.466;2022-11-15T11:32:36;23.88;;;15.95;;
57746;SDS011;43580;44.014;20.466;2022-11-15T11:37:42;25.73;;;17.05;;
57746;SDS011;43580;44.014;20.466;2022-11-15T11:42:42;25.58;;;18.48;;
57746;SDS011;43580;44.014;20.466;2022-11-15T11:47:39;32.63;;;20.88;;
57746;SDS011;43580;44.014;20.466;2022-11-15T11:50:16;33.03;;;20.33;;
57746;SDS011;43580;44.014;20.466;2022-11-15T11:55:36;34.35;;;23.13;;
57746;SDS011;43580;44.014;20.466;2022-11-15T12:00:43;31.00;;;20.40;;
57746;SDS011;43580;44.014;20.466;2022-11-15T12:03:18;35.00;;;22.38;;
57746;SDS011;43580;44.014;20.466;2022-11-15T12:05:54;33.72;;;22.23;;
57746;SDS011;43580;44.014;20.466;2022-11-15T12:13:35;34.70;;;21.35;;
57746;SDS011;43580;44.014;20.466;2022-11-15T12:16:05;30.02;;;19.92;;
57746;SDS011;43580;44.014;20.466;2022-11-15T12:18:31;29.85;;;21.05;;
57746;SDS011;43580;44.014;20.466;2022-11-15T12:21:00;32.20;;;20.50;;
57746;SDS011;43580;44.014;20.466;2022-11-15T12:23:29;37.78;;;21.83;;
57746;SDS011;43580;44.014;20.466;2022-11-15T12:26:00;30.17;;;21.58;;
57746;SDS011;43580;44.014;20.466;2022-11-15T12:28:38;32.72;;;22.40;;
57746;SDS011;43580;44.014;20.466;2022-11-15T12:31:23;35.85;;;23.20;;
57746;SDS011;43580;44.014;20.466;2022-11-15T12:33:50;33.03;;;22.50;;
57746;SDS011;43580;44.014;20.466;2022-11-15T12:38:54;32.17;;;22.23;;
57746;SDS011;43580;44.014;20.466;2022-11-15T12:41:22;36.78;;;24.00;;
57746;SDS011;43580;44.014;20.466;2022-11-15T12:43:48;32.50;;;21.80;;
57746;SDS011;43580;44.014;20.466;2022-11-15T12:51:22;31.27;;;21.95;;
57746;SDS011;43580;44.014;20.466;2022-11-15T13:02:56;67.93;;;37.67;;
57746;SDS011;43580;44.014;20.466;2022-11-15T13:17:46;39.30;;;24.80;;
57746;SDS011;43580;44.014;20.466;2022-11-15T13:27:48;35.40;;;23.95;;
57746;SDS011;43580;44.014;20.466;2022-11-15T13:30:25;34.25;;;23.35;;
57746;SDS011;43580;44.014;20.466;2022-11-15T13:32:51;37.28;;;24.98;;
57746;SDS011;43580;44.014;20.466;2022-11-15T13:35:25;37.70;;;25.20;;
57746;SDS011;43580;44.014;20.466;2022-11-15T13:37:51;35.45;;;21.98;;
57746;SDS011;43580;44.014;20.466;2022-11-15T13:40:20;36.78;;;22.77;;
57746;SDS011;43580;44.014;20.466;2022-11-15T13:42:46;37.97;;;24.50;;
57746;SDS011;43580;44.014;20.466;2022-11-15T13:45:13;38.67;;;21.33;;
57746;SDS011;43580;44.014;20.466;2022-11-15T13:47:40;38.83;;;24.98;;
57746;SDS011;43580;44.014;20.466;2022-11-15T13:50:10;38.90;;;25.77;;
57746;SDS011;43580;44.014;20.466;2022-11-15T13:52:36;44.38;;;25.30;;
57746;SDS011;43580;44.014;20.466;2022-11-15T13:57:40;41.38;;;26.60;;
57746;SDS011;43580;44.014;20.466;2022-11-15T14:02:53;45.60;;;26.00;;
57746;SDS011;43580;44.014;20.466;2022-11-15T14:05:20;39.53;;;25.27;;
57746;SDS011;43580;44.014;20.466;2022-11-15T14:07:54;39.83;;;27.45;;
57746;SDS011;43580;44.014;20.466;2022-11-15T14:10:30;50.05;;;29.90;;
57746;SDS011;43580;44.014;20.466;2022-11-15T14:12:56;43.05;;;26.23;;
57746;SDS011;43580;44.014;20.466;2022-11-15T14:17:55;42.65;;;26.13;;
57746;SDS011;43580;44.014;20.466;2022-11-15T14:20:31;41.95;;;23.67;;
57746;SDS011;43580;44.014;20.466;2022-11-15T14:25:51;35.93;;;23.37;;
57746;SDS011;43580;44.014;20.466;2022-11-15T14:30:44;38.35;;;25.65;;
57746;SDS011;43580;44.014;20.466;2022-11-15T14:33:17;35.50;;;25.15;;
57746;SDS011;43580;44.014;20.466;2022-11-15T14:35:44;33.55;;;24.58;;
57746;SDS011;43580;44.014;20.466;2022-11-15T14:38:10;37.88;;;24.00;;
57746;SDS011;43580;44.014;20.466;2022-11-15T14:40:36;32.78;;;23.63;;
57746;SDS011;43580;44.014;20.466;2022-11-15T14:43:02;35.90;;;23.13;;
57746;SDS011;43580;44.014;20.466;2022-11-15T14:45:28;38.28;;;24.45;;
57746;SDS011;43580;44.014;20.466;2022-11-15T14:47:54;39.50;;;25.88;;
57746;SDS011;43580;44.014;20.466;2022-11-15T14:50:21;43.08;;;28.33;;
57746;SDS011;43580;44.014;20.466;2022-11-15T14:52:47;48.25;;;33.97;;
57746;SDS011;43580;44.014;20.466;2022-11-15T14:57:48;70.65;;;39.38;;
57746;SDS011;43580;44.014;20.466;2022-11-15T15:00:15;53.50;;;33.47;;
57746;SDS011;43580;44.014;20.466;2022-11-15T15:02:42;45.47;;;28.50;;
57746;SDS011;43580;44.014;20.466;2022-11-15T15:05:15;59.72;;;31.55;;
57746;SDS011;43580;44.014;20.466;2022-11-15T15:07:42;60.45;;;31.08;;
57746;SDS011;43580;44.014;20.466;2022-11-15T15:10:08;42.60;;;28.75;;
57746;SDS011;43580;44.014;20.466;2022-11-15T15:12:34;72.10;;;38.50;;
57746;SDS011;43580;44.014;20.466;2022-11-15T15:15:00;68.45;;;40.33;;
57746;SDS011;43580;44.014;20.466;2022-11-15T15:17:26;79.53;;;47.85;;
57746;SDS011;43580;44.014;20.466;2022-11-15T15:19:55;115.40;;;69.90;;
57746;SDS011;43580;44.014;20.466;2022-11-15T15:22:23;109.70;;;69.22;;
57746;SDS011;43580;44.014;20.466;2022-11-15T15:24:52;107.70;;;65.88;;
57746;SDS011;43580;44.014;20.466;2022-11-15T15:27:18;117.25;;;65.45;;
57746;SDS011;43580;44.014;20.466;2022-11-15T15:29:44;72.03;;;46.13;;
57746;SDS011;43580;44.014;20.466;2022-11-15T15:32:10;57.08;;;39.80;;
57746;SDS011;43580;44.014;20.466;2022-11-15T15:34:38;48.17;;;33.63;;
57746;SDS011;43580;44.014;20.466;2022-11-15T15:37:08;48.65;;;34.60;;
57746;SDS011;43580;44.014;20.466;2022-11-15T15:39:37;62.13;;;42.33;;
57746;SDS011;43580;44.014;20.466;2022-11-15T15:42:03;123.57;;;76.10;;
57746;SDS011;43580;44.014;20.466;2022-11-15T15:44:29;242.35;;;109.18;;
57746;SDS011;43580;44.014;20.466;2022-11-15T15:46:56;180.60;;;94.25;;
57746;SDS011;43580;44.014;20.466;2022-11-15T15:49:22;95.07;;;57.58;;
57746;SDS011;43580;44.014;20.466;2022-11-15T15:51:49;101.80;;;66.97;;
57746;SDS011;43580;44.014;20.466;2022-11-15T15:54:15;99.78;;;64.82;;
57746;SDS011;43580;44.014;20.466;2022-11-15T15:56:41;89.75;;;52.03;;
57746;SDS011;43580;44.014;20.466;2022-11-15T15:59:07;94.25;;;60.33;;
57746;SDS011;43580;44.014;20.466;2022-11-15T16:01:35;134.73;;;85.20;;
57746;SDS011;43580;44.014;20.466;2022-11-15T16:04:01;113.35;;;75.07;;
57746;SDS011;43580;44.014;20.466;2022-11-15T16:08:53;87.75;;;55.72;;
57746;SDS011;43580;44.014;20.466;2022-11-15T16:11:19;100.93;;;64.03;;
57746;SDS011;43580;44.014;20.466;2022-11-15T16:13:46;93.95;;;55.58;;
57746;SDS011;43580;44.014;20.466;2022-11-15T16:16:12;114.07;;;66.93;;
57746;SDS011;43580;44.014;20.466;2022-11-15T16:18:39;148.07;;;93.40;;
57746;SDS011;43580;44.014;20.466;2022-11-15T16:21:05;212.50;;;136.48;;
57746;SDS011;43580;44.014;20.466;2022-11-15T16:23:31;169.32;;;109.15;;
57746;SDS011;43580;44.014;20.466;2022-11-15T16:25:57;186.85;;;110.95;;
57746;SDS011;43580;44.014;20.466;2022-11-15T16:28:31;290.20;;;153.90;;